sensor_id;sensor_type;location;lat;lon;timestamp;P1;durP1;ratioP1;P2;durP2;ratioP2
5904;SDS011;2978;42.012;24.880;2022-08-03T00:00:07;5.80;;;1.90;;
5904;SDS011;2978;42.012;24.880;2022-08-03T00:02:33;2.90;;;1.80;;
5904;SDS011;2978;42.012;24.880;2022-08-03T00:04:58;3.03;;;2.03;;
5904;SDS011;2978;42.012;24.880;2022-08-03T00:07:24;2.40;;;1.77;;
5904;SDS011;2978;42.012;24.880;2022-08-03T00:09:49;3.10;;;2.10;;
5904;SDS011;2978;42.012;24.880;2022-08-03T00:12:15;2.47;;;1.63;;
5904;SDS011;2978;42.012;24.880;2022-08-03T00:14:40;3.60;;;2.10;;
5904;SDS011;2978;42.012;24.880;2022-08-03T00:17:06;3.23;;;2.23;;
5904;SDS011;2978;42.012;24.880;2022-08-03T00:19:31;2.97;;;2.17;;
5904;SDS011;2978;42.012;24.880;2022-08-03T00:21:57;3.90;;;2.00;;
5904;SDS011;2978;42.012;24.880;2022-08-03T00:24:22;7.60;;;2.27;;
5904;SDS011;2978;42.012;24.880;2022-08-03T00:26:48;3.53;;;2.37;;
5904;SDS011;2978;42.012;24.880;2022-08-03T00:29:13;3.27;;;1.97;;
5904;SDS011;2978;42.012;24.880;2022-08-03T00:31:38;3.33;;;2.40;;
5904;SDS011;2978;42.012;24.880;2022-08-03T00:34:04;3.67;;;2.03;;
5904;SDS011;2978;42.012;24.880;2022-08-03T00:36:30;2.77;;;2.00;;
5904;SDS011;2978;42.012;24.880;2022-08-03T00:38:55;2.93;;;1.87;;
5904;SDS011;2978;42.012;24.880;2022-08-03T00:41:21;4.37;;;1.83;;
5904;SDS011;2978;42.012;24.880;2022-08-03T00:43:46;7.30;;;1.77;;
5904;SDS011;2978;42.012;24.880;2022-08-03T00:46:12;3.57;;;2.00;;
5904;SDS011;2978;42.012;24.880;2022-08-03T00:48:38;2.23;;;1.70;;
5904;SDS011;2978;42.012;24.880;2022-08-03T00:51:03;4.33;;;2.37;;
5904;SDS011;2978;42.012;24.880;2022-08-03T00:53:29;4.00;;;1.90;;
5904;SDS011;2978;42.012;24.880;2022-08-03T00:55:55;2.90;;;1.90;;
5904;SDS011;2978;42.012;24.880;2022-08-03T00:58:21;4.87;;;2.20;;
5904;SDS011;2978;42.012;24.880;2022-08-03T01:00:48;3.73;;;2.10;;
5904;SDS011;2978;42.012;24.880;2022-08-03T01:03:14;3.90;;;2.10;;
5904;SDS011;2978;42.012;24.880;2022-08-03T01:08:29;2.87;;;2.23;;
5904;SDS011;2978;42.012;24.880;2022-08-03T01:11:23;2.40;;;1.97;;
5904;SDS011;2978;42.012;24.880;2022-08-03T01:14:00;4.03;;;2.47;;
5904;SDS011;2978;42.012;24.880;2022-08-03T01:16:40;3.87;;;1.80;;
5904;SDS011;2978;42.012;24.880;2022-08-03T01:30:44;3.80;;;2.17;;
5904;SDS011;2978;42.012;24.880;2022-08-03T01:33:14;4.50;;;2.10;;
5904;SDS011;2978;42.012;24.880;2022-08-03T01:35:45;2.80;;;1.90;;
5904;SDS011;2978;42.012;24.880;2022-08-03T01:38:23;4.37;;;2.23;;
5904;SDS011;2978;42.012;24.880;2022-08-03T01:40:54;3.20;;;2.00;;
5904;SDS011;2978;42.012;24.880;2022-08-03T01:43:22;2.73;;;2.23;;
5904;SDS011;2978;42.012;24.880;2022-08-03T01:45:54;3.80;;;2.27;;
5904;SDS011;2978;42.012;24.880;2022-08-03T01:48:21;5.00;;;2.47;;
5904;SDS011;2978;42.012;24.880;2022-08-03T01:50:47;3.23;;;2.10;;
5904;SDS011;2978;42.012;24.880;2022-08-03T01:53:15;10.77;;;2.30;;
5904;SDS011;2978;42.012;24.880;2022-08-03T01:55:43;6.43;;;2.43;;
5904;SDS011;2978;42.012;24.880;2022-08-03T01:58:12;5.73;;;2.50;;
5904;SDS011;2978;42.012;24.880;2022-08-03T02:00:39;4.67;;;1.97;;
5904;SDS011;2978;42.012;24.880;2022-08-03T02:03:06;3.63;;;2.10;;
5904;SDS011;2978;42.012;24.880;2022-08-03T02:05:33;6.77;;;2.60;;
5904;SDS011;2978;42.012;24.880;2022-08-03T02:08:00;9.13;;;2.30;;
5904;SDS011;2978;42.012;24.880;2022-08-03T02:10:29;6.20;;;2.47;;
5904;SDS011;2978;42.012;24.880;2022-08-03T02:12:57;8.30;;;2.87;;
5904;SDS011;2978;42.012;24.880;2022-08-03T02:15:25;3.27;;;2.17;;
5904;SDS011;2978;42.012;24.880;2022-08-03T02:17:52;3.47;;;2.13;;
5904;SDS011;2978;42.012;24.880;2022-08-03T02:20:18;11.17;;;2.37;;
5904;SDS011;2978;42.012;24.880;2022-08-03T02:22:45;2.40;;;1.90;;
5904;SDS011;2978;42.012;24.880;2022-08-03T02:25:12;3.60;;;2.17;;
5904;SDS011;2978;42.012;24.880;2022-08-03T02:27:42;3.70;;;2.33;;
5904;SDS011;2978;42.012;24.880;2022-08-03T02:30:12;2.97;;;2.10;;
5904;SDS011;2978;42.012;24.880;2022-08-03T02:32:39;4.17;;;2.40;;
5904;SDS011;2978;42.012;24.880;2022-08-03T02:35:09;5.63;;;2.30;;
5904;SDS011;2978;42.012;24.880;2022-08-03T02:37:45;3.13;;;2.70;;
5904;SDS011;2978;42.012;24.880;2022-08-03T02:40:13;3.57;;;2.30;;
5904;SDS011;2978;42.012;24.880;2022-08-03T02:42:40;3.27;;;2.30;;
5904;SDS011;2978;42.012;24.880;2022-08-03T02:45:09;4.73;;;2.33;;
5904;SDS011;2978;42.012;24.880;2022-08-03T02:47:38;4.50;;;2.10;;
5904;SDS011;2978;42.012;24.880;2022-08-03T02:50:08;3.27;;;2.40;;
5904;SDS011;2978;42.012;24.880;2022-08-03T02:52:36;4.63;;;2.17;;
5904;SDS011;2978;42.012;24.880;2022-08-03T02:55:04;2.83;;;2.40;;
5904;SDS011;2978;42.012;24.880;2022-08-03T02:57:32;3.40;;;1.90;;
5904;SDS011;2978;42.012;24.880;2022-08-03T03:00:00;3.40;;;2.50;;
5904;SDS011;2978;42.012;24.880;2022-08-03T03:02:26;3.80;;;2.50;;
5904;SDS011;2978;42.012;24.880;2022-08-03T03:04:53;4.23;;;2.37;;
5904;SDS011;2978;42.012;24.880;2022-08-03T03:07:20;5.00;;;2.40;;
5904;SDS011;2978;42.012;24.880;2022-08-03T03:09:46;3.53;;;2.57;;
5904;SDS011;2978;42.012;24.880;2022-08-03T03:12:12;2.80;;;2.00;;
5904;SDS011;2978;42.012;24.880;2022-08-03T03:14:39;4.93;;;2.20;;
5904;SDS011;2978;42.012;24.880;2022-08-03T03:17:05;3.10;;;2.37;;
5904;SDS011;2978;42.012;24.880;2022-08-03T03:19:31;5.70;;;2.57;;
5904;SDS011;2978;42.012;24.880;2022-08-03T03:21:58;7.33;;;2.80;;
5904;SDS011;2978;42.012;24.880;2022-08-03T03:24:26;4.40;;;2.60;;
5904;SDS011;2978;42.012;24.880;2022-08-03T03:26:53;8.00;;;2.10;;
5904;SDS011;2978;42.012;24.880;2022-08-03T03:29:19;3.23;;;2.33;;
5904;SDS011;2978;42.012;24.880;2022-08-03T03:31:45;9.07;;;2.40;;
5904;SDS011;2978;42.012;24.880;2022-08-03T03:34:11;6.70;;;2.03;;
5904;SDS011;2978;42.012;24.880;2022-08-03T03:36:37;3.47;;;2.50;;
5904;SDS011;2978;42.012;24.880;2022-08-03T03:39:03;4.90;;;2.77;;
5904;SDS011;2978;42.012;24.880;2022-08-03T03:41:28;3.00;;;2.10;;
5904;SDS011;2978;42.012;24.880;2022-08-03T03:43:54;3.70;;;2.60;;
5904;SDS011;2978;42.012;24.880;2022-08-03T03:46:20;2.80;;;2.40;;
5904;SDS011;2978;42.012;24.880;2022-08-03T03:48:45;3.47;;;2.30;;
5904;SDS011;2978;42.012;24.880;2022-08-03T03:51:11;7.03;;;3.03;;
5904;SDS011;2978;42.012;24.880;2022-08-03T03:53:37;4.03;;;2.67;;
5904;SDS011;2978;42.012;24.880;2022-08-03T03:56:02;3.83;;;2.43;;
5904;SDS011;2978;42.012;24.880;2022-08-03T03:58:28;6.17;;;2.60;;
5904;SDS011;2978;42.012;24.880;2022-08-03T04:00:55;4.47;;;2.20;;
5904;SDS011;2978;42.012;24.880;2022-08-03T04:03:21;6.57;;;2.67;;
5904;SDS011;2978;42.012;24.880;2022-08-03T04:05:46;4.20;;;2.40;;
5904;SDS011;2978;42.012;24.880;2022-08-03T04:08:30;4.53;;;2.47;;
5904;SDS011;2978;42.012;24.880;2022-08-03T04:14:26;5.17;;;2.90;;
5904;SDS011;2978;42.012;24.880;2022-08-03T04:17:00;6.17;;;2.43;;
5904;SDS011;2978;42.012;24.880;2022-08-03T04:22:15;10.53;;;2.70;;
5904;SDS011;2978;42.012;24.880;2022-08-03T04:24:47;3.80;;;2.60;;
5904;SDS011;2978;42.012;24.880;2022-08-03T04:27:17;2.67;;;2.10;;
5904;SDS011;2978;42.012;24.880;2022-08-03T04:29:47;3.50;;;2.20;;
5904;SDS011;2978;42.012;24.880;2022-08-03T04:32:16;4.13;;;2.40;;
5904;SDS011;2978;42.012;24.880;2022-08-03T04:34:41;3.80;;;2.10;;
5904;SDS011;2978;42.012;24.880;2022-08-03T04:37:10;3.20;;;2.10;;
5904;SDS011;2978;42.012;24.880;2022-08-03T04:39:38;4.40;;;2.23;;
5904;SDS011;2978;42.012;24.880;2022-08-03T04:42:07;3.50;;;2.60;;
5904;SDS011;2978;42.012;24.880;2022-08-03T04:44:36;4.50;;;2.63;;
5904;SDS011;2978;42.012;24.880;2022-08-03T04:47:04;5.20;;;2.60;;
5904;SDS011;2978;42.012;24.880;2022-08-03T04:49:30;3.13;;;2.20;;
5904;SDS011;2978;42.012;24.880;2022-08-03T04:51:56;9.73;;;2.87;;
5904;SDS011;2978;42.012;24.880;2022-08-03T04:54:22;3.80;;;2.17;;
5904;SDS011;2978;42.012;24.880;2022-08-03T04:56:47;5.60;;;2.37;;
5904;SDS011;2978;42.012;24.880;2022-08-03T04:59:13;4.40;;;2.60;;
5904;SDS011;2978;42.012;24.880;2022-08-03T05:01:39;2.80;;;2.10;;
5904;SDS011;2978;42.012;24.880;2022-08-03T05:04:05;4.50;;;2.83;;
5904;SDS011;2978;42.012;24.880;2022-08-03T05:06:30;5.23;;;2.23;;
5904;SDS011;2978;42.012;24.880;2022-08-03T05:08:56;3.80;;;2.23;;
5904;SDS011;2978;42.012;24.880;2022-08-03T05:11:21;4.40;;;2.73;;
5904;SDS011;2978;42.012;24.880;2022-08-03T05:13:47;8.73;;;2.73;;
5904;SDS011;2978;42.012;24.880;2022-08-03T05:16:13;7.63;;;2.47;;
5904;SDS011;2978;42.012;24.880;2022-08-03T05:18:39;5.63;;;2.60;;
5904;SDS011;2978;42.012;24.880;2022-08-03T05:21:08;8.50;;;2.60;;
5904;SDS011;2978;42.012;24.880;2022-08-03T05:23:34;3.20;;;2.70;;
5904;SDS011;2978;42.012;24.880;2022-08-03T05:26:00;4.70;;;2.47;;
5904;SDS011;2978;42.012;24.880;2022-08-03T05:28:26;3.27;;;2.40;;
5904;SDS011;2978;42.012;24.880;2022-08-03T05:30:51;4.23;;;2.63;;
5904;SDS011;2978;42.012;24.880;2022-08-03T05:33:17;4.93;;;2.97;;
5904;SDS011;2978;42.012;24.880;2022-08-03T05:35:42;4.70;;;2.60;;
5904;SDS011;2978;42.012;24.880;2022-08-03T05:38:08;5.60;;;2.93;;
5904;SDS011;2978;42.012;24.880;2022-08-03T05:40:33;5.53;;;2.30;;
5904;SDS011;2978;42.012;24.880;2022-08-03T05:42:59;4.60;;;2.73;;
5904;SDS011;2978;42.012;24.880;2022-08-03T05:45:25;3.80;;;2.77;;
5904;SDS011;2978;42.012;24.880;2022-08-03T05:47:50;4.13;;;2.53;;
5904;SDS011;2978;42.012;24.880;2022-08-03T05:50:17;5.40;;;3.10;;
5904;SDS011;2978;42.012;24.880;2022-08-03T05:52:43;5.30;;;2.80;;
5904;SDS011;2978;42.012;24.880;2022-08-03T05:55:09;6.93;;;3.53;;
5904;SDS011;2978;42.012;24.880;2022-08-03T05:57:36;3.20;;;2.80;;
5904;SDS011;2978;42.012;24.880;2022-08-03T06:00:05;9.83;;;2.60;;
5904;SDS011;2978;42.012;24.880;2022-08-03T06:02:33;5.00;;;2.63;;
5904;SDS011;2978;42.012;24.880;2022-08-03T06:04:59;3.60;;;2.90;;
5904;SDS011;2978;42.012;24.880;2022-08-03T06:07:24;7.13;;;2.60;;
5904;SDS011;2978;42.012;24.880;2022-08-03T06:09:50;3.90;;;2.80;;
5904;SDS011;2978;42.012;24.880;2022-08-03T06:12:16;4.30;;;2.67;;
5904;SDS011;2978;42.012;24.880;2022-08-03T06:14:41;3.13;;;2.10;;
5904;SDS011;2978;42.012;24.880;2022-08-03T06:17:07;3.53;;;2.30;;
5904;SDS011;2978;42.012;24.880;2022-08-03T06:19:32;4.80;;;2.30;;
5904;SDS011;2978;42.012;24.880;2022-08-03T06:21:58;3.20;;;2.27;;
5904;SDS011;2978;42.012;24.880;2022-08-03T06:24:23;3.37;;;2.60;;
5904;SDS011;2978;42.012;24.880;2022-08-03T06:26:49;3.43;;;2.43;;
5904;SDS011;2978;42.012;24.880;2022-08-03T06:29:14;3.30;;;2.50;;
5904;SDS011;2978;42.012;24.880;2022-08-03T06:31:40;3.70;;;2.17;;
5904;SDS011;2978;42.012;24.880;2022-08-03T06:34:05;6.60;;;2.90;;
5904;SDS011;2978;42.012;24.880;2022-08-03T06:36:31;3.37;;;2.43;;
5904;SDS011;2978;42.012;24.880;2022-08-03T06:38:57;5.07;;;2.90;;
5904;SDS011;2978;42.012;24.880;2022-08-03T06:41:23;3.10;;;2.50;;
5904;SDS011;2978;42.012;24.880;2022-08-03T06:43:49;5.20;;;3.13;;
5904;SDS011;2978;42.012;24.880;2022-08-03T06:46:14;5.07;;;3.50;;
5904;SDS011;2978;42.012;24.880;2022-08-03T06:48:40;12.27;;;4.90;;
5904;SDS011;2978;42.012;24.880;2022-08-03T06:51:06;11.07;;;5.13;;
5904;SDS011;2978;42.012;24.880;2022-08-03T06:53:31;6.10;;;3.93;;
5904;SDS011;2978;42.012;24.880;2022-08-03T06:55:57;3.30;;;2.50;;
5904;SDS011;2978;42.012;24.880;2022-08-03T06:58:22;10.70;;;4.40;;
5904;SDS011;2978;42.012;24.880;2022-08-03T07:00:48;9.83;;;3.30;;
5904;SDS011;2978;42.012;24.880;2022-08-03T07:03:13;10.53;;;3.77;;
5904;SDS011;2978;42.012;24.880;2022-08-03T07:05:40;5.93;;;3.53;;
5904;SDS011;2978;42.012;24.880;2022-08-03T07:08:06;12.30;;;3.40;;
5904;SDS011;2978;42.012;24.880;2022-08-03T07:10:32;5.73;;;2.53;;
5904;SDS011;2978;42.012;24.880;2022-08-03T07:12:57;4.30;;;2.43;;
5904;SDS011;2978;42.012;24.880;2022-08-03T07:15:23;8.20;;;3.00;;
5904;SDS011;2978;42.012;24.880;2022-08-03T07:17:49;5.00;;;3.13;;
5904;SDS011;2978;42.012;24.880;2022-08-03T07:20:14;18.03;;;3.03;;
5904;SDS011;2978;42.012;24.880;2022-08-03T07:22:42;6.20;;;2.90;;
5904;SDS011;2978;42.012;24.880;2022-08-03T07:25:08;6.33;;;3.50;;
5904;SDS011;2978;42.012;24.880;2022-08-03T07:27:33;16.70;;;3.67;;
5904;SDS011;2978;42.012;24.880;2022-08-03T07:29:59;8.90;;;3.00;;
5904;SDS011;2978;42.012;24.880;2022-08-03T07:32:25;8.70;;;3.13;;
5904;SDS011;2978;42.012;24.880;2022-08-03T07:34:52;4.90;;;3.23;;
5904;SDS011;2978;42.012;24.880;2022-08-03T07:37:18;7.20;;;3.07;;
5904;SDS011;2978;42.012;24.880;2022-08-03T07:39:43;15.13;;;4.20;;
5904;SDS011;2978;42.012;24.880;2022-08-03T07:42:09;10.10;;;3.50;;
5904;SDS011;2978;42.012;24.880;2022-08-03T07:44:34;8.00;;;3.20;;
5904;SDS011;2978;42.012;24.880;2022-08-03T07:47:00;5.70;;;3.27;;
5904;SDS011;2978;42.012;24.880;2022-08-03T07:49:25;12.27;;;3.27;;
5904;SDS011;2978;42.012;24.880;2022-08-03T07:51:50;7.83;;;3.30;;
5904;SDS011;2978;42.012;24.880;2022-08-03T07:54:36;11.57;;;3.70;;
5904;SDS011;2978;42.012;24.880;2022-08-03T07:57:01;13.70;;;3.77;;
5904;SDS011;2978;42.012;24.880;2022-08-03T07:59:27;6.57;;;3.50;;
5904;SDS011;2978;42.012;24.880;2022-08-03T08:01:52;5.87;;;4.40;;
5904;SDS011;2978;42.012;24.880;2022-08-03T08:04:18;12.43;;;9.73;;
5904;SDS011;2978;42.012;24.880;2022-08-03T08:06:43;7.50;;;3.37;;
5904;SDS011;2978;42.012;24.880;2022-08-03T08:09:09;16.27;;;3.30;;
5904;SDS011;2978;42.012;24.880;2022-08-03T08:11:35;5.77;;;2.97;;
5904;SDS011;2978;42.012;24.880;2022-08-03T08:14:01;9.40;;;3.77;;
5904;SDS011;2978;42.012;24.880;2022-08-03T08:16:28;7.00;;;3.10;;
5904;SDS011;2978;42.012;24.880;2022-08-03T08:18:53;15.10;;;3.73;;
5904;SDS011;2978;42.012;24.880;2022-08-03T08:21:19;10.40;;;2.80;;
5904;SDS011;2978;42.012;24.880;2022-08-03T08:23:44;5.27;;;3.40;;
5904;SDS011;2978;42.012;24.880;2022-08-03T08:26:10;6.90;;;3.50;;
5904;SDS011;2978;42.012;24.880;2022-08-03T08:28:36;9.10;;;3.30;;
5904;SDS011;2978;42.012;24.880;2022-08-03T08:31:01;6.80;;;3.00;;
5904;SDS011;2978;42.012;24.880;2022-08-03T08:33:27;6.63;;;3.40;;
5904;SDS011;2978;42.012;24.880;2022-08-03T08:35:52;18.03;;;3.70;;
5904;SDS011;2978;42.012;24.880;2022-08-03T08:38:18;19.23;;;3.23;;
5904;SDS011;2978;42.012;24.880;2022-08-03T08:40:43;15.93;;;3.37;;
5904;SDS011;2978;42.012;24.880;2022-08-03T08:43:09;5.07;;;3.07;;
5904;SDS011;2978;42.012;24.880;2022-08-03T08:45:34;8.93;;;3.53;;
5904;SDS011;2978;42.012;24.880;2022-08-03T08:48:01;16.00;;;3.30;;
5904;SDS011;2978;42.012;24.880;2022-08-03T08:50:28;7.50;;;3.10;;
5904;SDS011;2978;42.012;24.880;2022-08-03T08:52:54;8.90;;;3.70;;
5904;SDS011;2978;42.012;24.880;2022-08-03T08:55:24;8.40;;;3.40;;
5904;SDS011;2978;42.012;24.880;2022-08-03T08:57:54;4.33;;;3.00;;
5904;SDS011;2978;42.012;24.880;2022-08-03T09:00:25;18.63;;;3.87;;
5904;SDS011;2978;42.012;24.880;2022-08-03T09:02:51;10.20;;;3.40;;
5904;SDS011;2978;42.012;24.880;2022-08-03T09:05:18;4.87;;;3.33;;
5904;SDS011;2978;42.012;24.880;2022-08-03T09:07:44;7.00;;;3.30;;
5904;SDS011;2978;42.012;24.880;2022-08-03T09:10:12;5.30;;;3.43;;
5904;SDS011;2978;42.012;24.880;2022-08-03T09:12:44;5.57;;;3.47;;
5904;SDS011;2978;42.012;24.880;2022-08-03T09:15:31;5.90;;;2.73;;
5904;SDS011;2978;42.012;24.880;2022-08-03T09:18:00;5.20;;;3.20;;
5904;SDS011;2978;42.012;24.880;2022-08-03T09:20:28;5.60;;;2.60;;
5904;SDS011;2978;42.012;24.880;2022-08-03T09:22:59;4.33;;;2.90;;
5904;SDS011;2978;42.012;24.880;2022-08-03T09:25:28;6.77;;;3.40;;
5904;SDS011;2978;42.012;24.880;2022-08-03T09:28:03;6.33;;;3.40;;
5904;SDS011;2978;42.012;24.880;2022-08-03T09:30:43;4.20;;;3.10;;
5904;SDS011;2978;42.012;24.880;2022-08-03T09:33:21;10.23;;;3.60;;
5904;SDS011;2978;42.012;24.880;2022-08-03T09:35:47;17.30;;;3.83;;
5904;SDS011;2978;42.012;24.880;2022-08-03T09:40:43;6.10;;;3.03;;
5904;SDS011;2978;42.012;24.880;2022-08-03T09:43:10;10.67;;;2.80;;
5904;SDS011;2978;42.012;24.880;2022-08-03T09:45:36;3.67;;;2.40;;
5904;SDS011;2978;42.012;24.880;2022-08-03T09:50:49;5.17;;;2.63;;
5904;SDS011;2978;42.012;24.880;2022-08-03T09:53:25;4.63;;;3.30;;
5904;SDS011;2978;42.012;24.880;2022-08-03T09:55:51;3.20;;;2.27;;
5904;SDS011;2978;42.012;24.880;2022-08-03T09:58:29;6.73;;;3.30;;
5904;SDS011;2978;42.012;24.880;2022-08-03T10:03:26;8.20;;;3.90;;
5904;SDS011;2978;42.012;24.880;2022-08-03T10:05:53;7.93;;;4.23;;
5904;SDS011;2978;42.012;24.880;2022-08-03T10:08:19;7.40;;;5.53;;
5904;SDS011;2978;42.012;24.880;2022-08-03T10:10:46;6.03;;;4.63;;
5904;SDS011;2978;42.012;24.880;2022-08-03T10:13:14;14.30;;;10.10;;
5904;SDS011;2978;42.012;24.880;2022-08-03T10:15:41;9.43;;;5.20;;
5904;SDS011;2978;42.012;24.880;2022-08-03T10:18:06;9.83;;;6.03;;
5904;SDS011;2978;42.012;24.880;2022-08-03T10:20:51;9.07;;;6.60;;
5904;SDS011;2978;42.012;24.880;2022-08-03T10:23:19;16.27;;;9.90;;
5904;SDS011;2978;42.012;24.880;2022-08-03T10:25:46;8.17;;;4.77;;
5904;SDS011;2978;42.012;24.880;2022-08-03T10:28:17;6.43;;;4.20;;
5904;SDS011;2978;42.012;24.880;2022-08-03T10:30:52;4.60;;;3.70;;
5904;SDS011;2978;42.012;24.880;2022-08-03T10:33:19;6.20;;;2.97;;
5904;SDS011;2978;42.012;24.880;2022-08-03T10:35:49;5.57;;;3.33;;
5904;SDS011;2978;42.012;24.880;2022-08-03T10:38:19;9.70;;;4.60;;
5904;SDS011;2978;42.012;24.880;2022-08-03T10:40:53;5.90;;;4.73;;
5904;SDS011;2978;42.012;24.880;2022-08-03T10:43:25;6.73;;;4.77;;
5904;SDS011;2978;42.012;24.880;2022-08-03T10:45:56;12.37;;;4.03;;
5904;SDS011;2978;42.012;24.880;2022-08-03T10:48:22;13.47;;;4.23;;
5904;SDS011;2978;42.012;24.880;2022-08-03T10:50:49;8.60;;;5.80;;
5904;SDS011;2978;42.012;24.880;2022-08-03T10:53:15;10.37;;;7.10;;
5904;SDS011;2978;42.012;24.880;2022-08-03T10:55:57;9.93;;;7.40;;
5904;SDS011;2978;42.012;24.880;2022-08-03T10:58:53;12.80;;;8.50;;
5904;SDS011;2978;42.012;24.880;2022-08-03T11:01:48;10.93;;;8.00;;
5904;SDS011;2978;42.012;24.880;2022-08-03T11:04:15;8.63;;;5.90;;
5904;SDS011;2978;42.012;24.880;2022-08-03T11:06:42;10.33;;;6.07;;
5904;SDS011;2978;42.012;24.880;2022-08-03T11:11:34;10.00;;;4.93;;
5904;SDS011;2978;42.012;24.880;2022-08-03T11:14:04;4.80;;;3.47;;
5904;SDS011;2978;42.012;24.880;2022-08-03T11:16:33;5.27;;;3.40;;
5904;SDS011;2978;42.012;24.880;2022-08-03T11:19:04;10.90;;;3.40;;
5904;SDS011;2978;42.012;24.880;2022-08-03T11:27:22;4.07;;;2.80;;
5904;SDS011;2978;42.012;24.880;2022-08-03T11:40:37;3.00;;;2.30;;
5904;SDS011;2978;42.012;24.880;2022-08-03T11:48:43;3.80;;;3.20;;
5904;SDS011;2978;42.012;24.880;2022-08-03T11:53:50;7.20;;;2.63;;
5904;SDS011;2978;42.012;24.880;2022-08-03T11:56:18;3.23;;;2.20;;
5904;SDS011;2978;42.012;24.880;2022-08-03T11:58:47;4.77;;;2.00;;
5904;SDS011;2978;42.012;24.880;2022-08-03T12:01:16;5.57;;;2.57;;
5904;SDS011;2978;42.012;24.880;2022-08-03T12:03:42;3.70;;;1.80;;
5904;SDS011;2978;42.012;24.880;2022-08-03T12:06:09;3.20;;;2.13;;
5904;SDS011;2978;42.012;24.880;2022-08-03T12:08:36;3.03;;;2.23;;
5904;SDS011;2978;42.012;24.880;2022-08-03T12:11:03;3.53;;;2.00;;
5904;SDS011;2978;42.012;24.880;2022-08-03T12:13:41;4.17;;;2.23;;
5904;SDS011;2978;42.012;24.880;2022-08-03T12:16:09;2.97;;;2.17;;
5904;SDS011;2978;42.012;24.880;2022-08-03T12:18:35;3.60;;;2.37;;
5904;SDS011;2978;42.012;24.880;2022-08-03T12:21:07;11.10;;;2.20;;
5904;SDS011;2978;42.012;24.880;2022-08-03T12:23:34;6.03;;;2.77;;
5904;SDS011;2978;42.012;24.880;2022-08-03T12:26:02;4.40;;;2.30;;
5904;SDS011;2978;42.012;24.880;2022-08-03T12:28:28;8.57;;;2.20;;
5904;SDS011;2978;42.012;24.880;2022-08-03T12:30:54;3.23;;;2.20;;
5904;SDS011;2978;42.012;24.880;2022-08-03T12:33:21;12.53;;;2.47;;
5904;SDS011;2978;42.012;24.880;2022-08-03T12:36:11;3.10;;;2.10;;
5904;SDS011;2978;42.012;24.880;2022-08-03T12:38:37;8.33;;;2.60;;
5904;SDS011;2978;42.012;24.880;2022-08-03T12:41:08;6.77;;;2.60;;
5904;SDS011;2978;42.012;24.880;2022-08-03T12:43:50;4.93;;;2.60;;
5904;SDS011;2978;42.012;24.880;2022-08-03T12:46:16;7.87;;;2.30;;
5904;SDS011;2978;42.012;24.880;2022-08-03T12:51:56;2.60;;;1.73;;
5904;SDS011;2978;42.012;24.880;2022-08-03T12:54:23;10.43;;;2.50;;
5904;SDS011;2978;42.012;24.880;2022-08-03T12:59:26;4.70;;;2.20;;
5904;SDS011;2978;42.012;24.880;2022-08-03T13:01:53;4.00;;;1.90;;
5904;SDS011;2978;42.012;24.880;2022-08-03T13:04:29;4.60;;;2.53;;
5904;SDS011;2978;42.012;24.880;2022-08-03T13:07:00;5.20;;;2.20;;
5904;SDS011;2978;42.012;24.880;2022-08-03T13:09:28;8.03;;;1.80;;
5904;SDS011;2978;42.012;24.880;2022-08-03T13:12:05;6.87;;;2.30;;
5904;SDS011;2978;42.012;24.880;2022-08-03T13:14:31;6.77;;;2.33;;
5904;SDS011;2978;42.012;24.880;2022-08-03T13:16:57;5.53;;;2.23;;
5904;SDS011;2978;42.012;24.880;2022-08-03T13:19:22;5.60;;;2.80;;
5904;SDS011;2978;42.012;24.880;2022-08-03T13:21:48;5.63;;;2.20;;
5904;SDS011;2978;42.012;24.880;2022-08-03T13:24:13;6.23;;;2.87;;
5904;SDS011;2978;42.012;24.880;2022-08-03T13:26:39;14.93;;;3.10;;
5904;SDS011;2978;42.012;24.880;2022-08-03T13:29:05;3.80;;;2.13;;
5904;SDS011;2978;42.012;24.880;2022-08-03T13:31:30;3.93;;;2.33;;
5904;SDS011;2978;42.012;24.880;2022-08-03T13:33:56;4.37;;;2.47;;
5904;SDS011;2978;42.012;24.880;2022-08-03T13:36:21;5.50;;;2.50;;
5904;SDS011;2978;42.012;24.880;2022-08-03T13:38:48;4.93;;;2.70;;
5904;SDS011;2978;42.012;24.880;2022-08-03T13:41:14;8.30;;;2.43;;
5904;SDS011;2978;42.012;24.880;2022-08-03T13:43:40;5.77;;;2.53;;
5904;SDS011;2978;42.012;24.880;2022-08-03T13:46:05;5.63;;;2.60;;
5904;SDS011;2978;42.012;24.880;2022-08-03T13:48:30;6.10;;;2.67;;
5904;SDS011;2978;42.012;24.880;2022-08-03T13:50:56;6.10;;;2.37;;
5904;SDS011;2978;42.012;24.880;2022-08-03T13:53:22;4.17;;;2.67;;
5904;SDS011;2978;42.012;24.880;2022-08-03T13:55:48;5.10;;;2.53;;
5904;SDS011;2978;42.012;24.880;2022-08-03T13:58:13;2.83;;;2.27;;
5904;SDS011;2978;42.012;24.880;2022-08-03T14:00:39;4.07;;;2.33;;
5904;SDS011;2978;42.012;24.880;2022-08-03T14:03:04;8.83;;;2.77;;
5904;SDS011;2978;42.012;24.880;2022-08-03T14:05:30;6.63;;;2.30;;
5904;SDS011;2978;42.012;24.880;2022-08-03T14:07:56;9.90;;;3.13;;
5904;SDS011;2978;42.012;24.880;2022-08-03T14:10:22;3.40;;;2.23;;
5904;SDS011;2978;42.012;24.880;2022-08-03T14:12:47;5.40;;;2.10;;
5904;SDS011;2978;42.012;24.880;2022-08-03T14:15:13;5.40;;;2.37;;
5904;SDS011;2978;42.012;24.880;2022-08-03T14:17:38;6.67;;;3.17;;
5904;SDS011;2978;42.012;24.880;2022-08-03T14:20:05;15.23;;;2.70;;
5904;SDS011;2978;42.012;24.880;2022-08-03T14:22:31;4.23;;;1.93;;
5904;SDS011;2978;42.012;24.880;2022-08-03T14:24:57;4.77;;;2.20;;
5904;SDS011;2978;42.012;24.880;2022-08-03T14:27:22;3.00;;;2.00;;
5904;SDS011;2978;42.012;24.880;2022-08-03T14:29:48;9.50;;;2.60;;
5904;SDS011;2978;42.012;24.880;2022-08-03T14:32:13;7.10;;;2.83;;
5904;SDS011;2978;42.012;24.880;2022-08-03T14:34:39;6.00;;;2.67;;
5904;SDS011;2978;42.012;24.880;2022-08-03T14:37:04;3.37;;;2.20;;
5904;SDS011;2978;42.012;24.880;2022-08-03T14:39:30;3.50;;;2.17;;
5904;SDS011;2978;42.012;24.880;2022-08-03T14:41:55;3.17;;;2.30;;
5904;SDS011;2978;42.012;24.880;2022-08-03T14:44:21;4.40;;;2.90;;
5904;SDS011;2978;42.012;24.880;2022-08-03T14:46:46;2.90;;;1.83;;
5904;SDS011;2978;42.012;24.880;2022-08-03T14:49:12;3.67;;;2.50;;
5904;SDS011;2978;42.012;24.880;2022-08-03T14:51:37;4.00;;;2.53;;
5904;SDS011;2978;42.012;24.880;2022-08-03T14:54:02;7.63;;;2.57;;
5904;SDS011;2978;42.012;24.880;2022-08-03T14:56:28;4.77;;;2.57;;
5904;SDS011;2978;42.012;24.880;2022-08-03T14:58:53;5.67;;;2.40;;
5904;SDS011;2978;42.012;24.880;2022-08-03T15:01:19;7.17;;;2.37;;
5904;SDS011;2978;42.012;24.880;2022-08-03T15:03:44;5.03;;;2.20;;
5904;SDS011;2978;42.012;24.880;2022-08-03T15:06:11;3.87;;;2.50;;
5904;SDS011;2978;42.012;24.880;2022-08-03T15:08:37;3.80;;;2.27;;
5904;SDS011;2978;42.012;24.880;2022-08-03T15:11:02;5.43;;;2.87;;
5904;SDS011;2978;42.012;24.880;2022-08-03T15:13:28;3.33;;;2.33;;
5904;SDS011;2978;42.012;24.880;2022-08-03T15:15:53;4.33;;;2.63;;
5904;SDS011;2978;42.012;24.880;2022-08-03T15:18:19;14.67;;;2.20;;
5904;SDS011;2978;42.012;24.880;2022-08-03T15:20:44;5.43;;;2.30;;
5904;SDS011;2978;42.012;24.880;2022-08-03T15:23:10;4.87;;;2.47;;
5904;SDS011;2978;42.012;24.880;2022-08-03T15:25:36;7.00;;;3.63;;
5904;SDS011;2978;42.012;24.880;2022-08-03T15:28:02;5.70;;;3.47;;
5904;SDS011;2978;42.012;24.880;2022-08-03T15:30:27;6.73;;;3.00;;
5904;SDS011;2978;42.012;24.880;2022-08-03T15:32:53;3.10;;;2.07;;
5904;SDS011;2978;42.012;24.880;2022-08-03T15:35:18;8.70;;;2.40;;
5904;SDS011;2978;42.012;24.880;2022-08-03T15:37:44;3.43;;;2.47;;
5904;SDS011;2978;42.012;24.880;2022-08-03T15:40:10;7.73;;;2.30;;
5904;SDS011;2978;42.012;24.880;2022-08-03T15:42:36;2.87;;;2.23;;
5904;SDS011;2978;42.012;24.880;2022-08-03T15:45:02;3.17;;;2.10;;
5904;SDS011;2978;42.012;24.880;2022-08-03T15:47:28;5.83;;;2.87;;
5904;SDS011;2978;42.012;24.880;2022-08-03T15:49:53;5.20;;;2.83;;
5904;SDS011;2978;42.012;24.880;2022-08-03T15:52:19;7.80;;;2.80;;
5904;SDS011;2978;42.012;24.880;2022-08-03T15:54:44;3.40;;;2.33;;
5904;SDS011;2978;42.012;24.880;2022-08-03T15:57:09;3.47;;;1.87;;
5904;SDS011;2978;42.012;24.880;2022-08-03T15:59:35;2.70;;;1.90;;
5904;SDS011;2978;42.012;24.880;2022-08-03T16:02:00;3.90;;;2.13;;